Flight Track Log - Related Links

Times and Time Zones

All times are in EDT time to prevent confusion due to time zone crossing. See the BAW228 flight status page for this flight to view local times or setup timezone preferences in your user account.

Time Position Orientation Groundspeed Altitude Reporting Facility
EDT Latitude Longitude Course Direction KTS MPH feet Rate Location/Type
Thu 11:04:18 PM 39.1800 -76.6600 174° South 9 10  Level FlightAware ADS-B
Thu 11:05:13 PM 39.1790 -76.6610 218° Southwest 6 7 200 Level FlightAware ADS-B
Thu 11:05:38 PM 39.1770 -76.6630 218° Southwest 17 20 219 Level FlightAware ADS-B
Thu 11:06:08 PM 39.1750 -76.6650 218° Southwest 18 21 229 Level FlightAware ADS-B
Thu 11:06:38 PM 39.1730 -76.6660 201° Southwest 15 17 242 Level FlightAware ADS-B
Thu 11:07:33 PM 39.1710 -76.6660 180° South 10 12 257 Level FlightAware ADS-B
Thu 11:10:00 PM 39.1500 -76.2584 90° East  Level FlightAware Approximate
Thu 11:11:00 PM 39.1500 -76.3459 270° West  Level FlightAware Approximate
Thu 11:12:00 PM 39.1618 -76.5155 280° West  Level FlightAware Approximate
Thu 11:13:00 PM 39.1667 -76.6141 90° East  Level FlightAware Approximate
Thu 11:14:00 PM 39.1500 -76.4458 90° East  Level FlightAware Approximate
Thu 11:14:49 PM 39.2080 -76.7080 318° Northwest 188 216 2,100  Level FlightAware ADS-B
Thu 11:14:58 PM 39.2100 -76.7170 286° West 187 215 2,400 1,077 Climbing FlightAware ADS-B
Thu 11:15:28 PM 39.1930 -76.7440 231° Southwest 195 224 2,800 1,200 Climbing FlightAware ADS-B
Thu 11:15:53 PM 39.1680 -76.7340 163° South 219 252 3,500 1,500 Climbing FlightAware ADS-B
Thu 11:16:08 PM 39.1610 -76.7170 118° Southeast 226 260 3,800 1,000 Climbing FlightAware ADS-B
Thu 11:16:23 PM 39.1600 -76.7010 95° East 243 280 4,000 1,333 Climbing FlightAware ADS-B
Thu 11:16:53 PM 39.1590 -76.6520 91° East 266 306 4,800 1,733 Climbing FlightAware ADS-B
Thu 11:17:08 PM 39.1590 -76.6240 90° East 275 316 5,300 2,057 Climbing FlightAware ADS-B
Thu 11:17:28 PM 39.1580 -76.5960 93° East 279 321 6,000 2,500 Climbing FlightAware ADS-B
Thu 11:18:08 PM 39.1570 -76.5222 91° East 287 330 7,800 2,483 Climbing FlightAware ADS-B
Thu 11:18:26 PM 39.1565 -76.4928 91° East 290 334 8,400 2,182 Climbing FlightAware ADS-B
Thu 11:18:41 PM 39.1560 -76.4651 91° East 292 336 9,000 2,516 Climbing FlightAware ADS-B
Thu 11:18:57 PM 39.1555 -76.4370 91° East 294 338 9,700 1,846 Climbing FlightAware ADS-B
Thu 11:19:33 PM 39.1545 -76.3740 91° East 313 360 10,600 1,343 Climbing FlightAware ADS-B
Thu 11:20:04 PM 39.1536 -76.3113 91° East 342 394 11,200 1,645 Climbing FlightAware ADS-B
Thu 11:20:35 PM 39.1527 -76.2496 91° East 347 399 12,300 2,250 Climbing FlightAware ADS-B
Thu 11:20:52 PM 39.1525 -76.2142 90° East 350 403 13,000 2,250 Climbing FlightAware ADS-B
Thu 11:21:23 PM 39.1438 -76.1478 100° East 357 411 14,100 2,066 Climbing FlightAware ADS-B
Thu 11:21:53 PM 39.1359 -76.0841 99° East 362 417 15,100 2,040 Climbing FlightAware ADS-B
Thu 11:22:13 PM 39.1309 -76.0412 99° East 366 421 15,800 2,000 Climbing FlightAware ADS-B
Thu 11:22:23 PM 39.1296 -76.0195 94° East 369 425 16,100 1,714 Climbing FlightAware ADS-B
Thu 11:22:27 PM 39.1299 -76.0107 87° East 370 426 16,200 1,714 Climbing FlightAware ADS-B
Thu 11:22:30 PM 39.1306 -76.0040 82° East 372 428 16,300 2,000 Climbing FlightAware ADS-B
Thu 11:22:39 PM 39.1340 -75.9844 77° East 374 430 16,600 1,895 Climbing FlightAware ADS-B
Thu 11:22:49 PM 39.1400 -75.9637 70° East 376 433 16,900 1,667 Climbing FlightAware ADS-B
Thu 11:22:57 PM 39.1466 -75.9479 62° Northeast 377 434 17,100 1,826 Climbing FlightAware ADS-B
Thu 11:23:12 PM 39.1623 -75.9227 51° Northeast 379 436 17,600 1,737 Climbing FlightAware ADS-B
Thu 11:23:35 PM 39.1885 -75.8824 50° Northeast 387 445 18,200 1,358 Climbing FlightAware ADS-B
Thu 11:24:05 PM 39.2286 -75.8311 45° Northeast 403 464 18,800 1,200 Climbing FlightAware ADS-B
Thu 11:24:35 PM 39.2693 -75.7796 44° Northeast 419 482 19,400 1,082 Climbing FlightAware ADS-B
Thu 11:25:06 PM 39.3129 -75.7234 45° Northeast 436 502 19,900 984 Climbing FlightAware ADS-B
Thu 11:25:36 PM 39.3565 -75.6666 45° Northeast 451 519 20,400 1,180 Climbing FlightAware ADS-B
Thu 11:26:07 PM 39.4013 -75.6087 45° Northeast 460 529 21,100 1,313 Climbing FlightAware ADS-B
Thu 11:26:40 PM 39.4520 -75.5418 46° Northeast 467 537 21,800 1,385 Climbing FlightAware ADS-B
Thu 11:27:12 PM 39.5006 -75.4795 45° Northeast 473 544 22,600 1,452 Climbing FlightAware ADS-B
Thu 11:27:42 PM 39.5483 -75.4167 45° Northeast 478 550 23,300 1,227 Climbing FlightAware ADS-B
Thu 11:27:56 PM 39.5710 -75.3909 41° Northeast 481 554 23,500 1,400 Climbing FlightAware ADS-B
Thu 11:28:42 PM 39.6607 -75.3248 30° Northeast 483 556 24,700 1,519 Climbing FlightAware ADS-B
Thu 11:29:15 PM 39.7263 -75.2783 29° Northeast 486 559 25,500 1,406 Climbing FlightAware ADS-B
Thu 11:29:46 PM 39.7874 -75.2342 29° Northeast 490 564 26,200 1,574 Climbing FlightAware ADS-B
Thu 11:30:16 PM 39.8467 -75.1912 29° Northeast 485 558 27,100 1,742 Climbing FlightAware ADS-B
Thu 11:30:48 PM 39.9084 -75.1468 29° Northeast 484 557 28,000 1,714 Climbing FlightAware ADS-B
Thu 11:31:12 PM 39.9509 -75.1053 37° Northeast 484 557 28,700 1,688 Climbing FlightAware ADS-B
Thu 11:31:20 PM 39.9635 -75.0857 50° Northeast 485 558 28,900 1,636 Climbing FlightAware ADS-B
Thu 11:31:34 PM 39.9830 -75.0563 49° Northeast 485 558 29,300 1,588 Climbing FlightAware ADS-B
Thu 11:31:54 PM 40.0071 -75.0074 57° Northeast 486 559 29,800 1,529 Climbing FlightAware ADS-B
Thu 11:32:25 PM 40.0392 -74.9238 63° Northeast 486 559 30,600 1,574 Climbing FlightAware ADS-B
Thu 11:32:55 PM 40.0696 -74.8456 63° Northeast 484 557 31,400 1,548 Climbing FlightAware ADS-B
Thu 11:33:27 PM 40.1017 -74.7619 63° Northeast 483 556 32,200 1,429 Climbing FlightAware ADS-B
Thu 11:33:58 PM 40.1319 -74.6814 64° Northeast 480 552 32,900 762 Climbing FlightAware ADS-B
Thu 11:34:30 PM 40.1631 -74.6008 63° Northeast 481 554 33,000 109 Climbing FlightAware ADS-B
Thu 11:34:53 PM 40.1861 -74.5383 64° Northeast 481 554 33,000  Level FlightAware ADS-B
Thu 11:35:23 PM 40.2099 -74.4573 69° East 477 549 33,000  Level FlightAware ADS-B
Thu 11:35:54 PM 40.2279 -74.3745 74° East 473 544 33,000  Level FlightAware ADS-B
Thu 11:36:33 PM 40.2497 -74.2642 75° East 471 542 33,000  Level FlightAware ADS-B
Thu 11:37:03 PM 40.2664 -74.1819 75° East 470 541 33,000  Level FlightAware ADS-B
Thu 11:37:34 PM 40.2833 -74.0995 75° East 468 539 33,000  Level FlightAware ADS-B
Thu 11:38:06 PM 40.3012 -74.0090 75° East 468 539 33,000  Level FlightAware ADS-B
Thu 11:38:36 PM 40.3175 -73.9271 75° East 467 537 33,000  Level FlightAware ADS-B
Thu 11:39:07 PM 40.3339 -73.8451 75° East 467 537 33,000  Level FlightAware ADS-B
Thu 11:39:38 PM 40.3506 -73.7603 75° East 465 535 33,000  Level FlightAware ADS-B
Thu 11:40:09 PM 40.3671 -73.6756 76° East 466 536 33,000  Level FlightAware ADS-B
Thu 11:40:39 PM 40.3835 -73.5911 76° East 465 535 33,000  Level FlightAware ADS-B
Thu 11:41:12 PM 40.4012 -73.5013 75° East 463 533 33,000  Level FlightAware ADS-B
Thu 11:41:33 PM 40.4134 -73.4446 74° East 463 533 33,000  Level FlightAware ADS-B
Thu 11:41:42 PM 40.4207 -73.4210 68° East 463 533 33,000  Level FlightAware ADS-B
Thu 11:41:58 PM 40.4351 -73.3831 63° Northeast 462 532 33,000  Level FlightAware ADS-B
Thu 11:42:05 PM 40.4429 -73.3634 63° Northeast 463 533 33,000  Level FlightAware ADS-B
Thu 11:42:36 PM 40.4777 -73.2920 57° Northeast 464 534 33,000  Level FlightAware ADS-B
Thu 11:43:06 PM 40.5120 -73.2206 58° Northeast 465 535 33,000  Level FlightAware ADS-B
Thu 11:43:36 PM 40.5471 -73.1468 58° Northeast 465 535 33,000  Level FlightAware ADS-B
Thu 11:44:06 PM 40.5819 -73.0751 57° Northeast 467 537 33,000  Level FlightAware ADS-B
Thu 11:44:36 PM 40.6169 -73.0028 57° Northeast 470 541 33,000  Level FlightAware ADS-B
Thu 11:45:07 PM 40.6531 -72.9282 57° Northeast 472 543 33,000  Level FlightAware ADS-B
Thu 11:45:37 PM 40.6885 -72.8553 57° Northeast 475 547 33,000  Level FlightAware ADS-B
Thu 11:46:07 PM 40.7243 -72.7820 57° Northeast 479 551 33,000  Level FlightAware ADS-B
Thu 11:46:38 PM 40.7605 -72.7080 57° Northeast 480 552 33,000  Level FlightAware ADS-B
Thu 11:47:08 PM 40.7970 -72.6312 58° Northeast 483 556 33,000  Level FlightAware ADS-B
Thu 11:47:38 PM 40.8332 -72.5563 57° Northeast 484 557 33,000  Level FlightAware ADS-B
Thu 11:48:08 PM 40.8688 -72.4811 58° Northeast 486 559 33,000  Level FlightAware ADS-B
Thu 11:48:39 PM 40.9049 -72.4030 59° Northeast 485 558 33,000  Level FlightAware ADS-B
Thu 11:49:10 PM 40.9410 -72.3274 58° Northeast 485 558 33,000  Level FlightAware ADS-B
Thu 11:49:41 PM 40.9778 -72.2493 58° Northeast 485 558 33,000  Level FlightAware ADS-B
Thu 11:50:14 PM 41.0178 -72.1634 58° Northeast 485 558 33,000  Level FlightAware ADS-B
Thu 11:50:45 PM 41.0542 -72.0851 58° Northeast 486 559 33,000  Level FlightAware ADS-B
Thu 11:51:16 PM 41.0902 -72.0066 59° Northeast 485 558 33,000  Level FlightAware ADS-B
Thu 11:51:47 PM 41.1265 -71.9280 58° Northeast 485 558 33,000  Level FlightAware ADS-B
Thu 11:52:18 PM 41.1626 -71.8518 58° Northeast 486 559 33,000  Level FlightAware ADS-B
Thu 11:52:52 PM 41.2024 -71.7654 59° Northeast 485 558 33,000  Level FlightAware ADS-B
Thu 11:53:23 PM 41.2392 -71.6841 59° Northeast 484 557 33,000  Level FlightAware ADS-B
Thu 11:53:57 PM 41.2760 -71.6030 59° Northeast 480 552 33,000  Level FlightAware ADS-B
Thu 11:54:16 PM 41.3011 -71.5495 58° Northeast 485 558 33,000  Level FlightAware ADS-B
Thu 11:54:51 PM 41.3415 -71.4602 59° Northeast 486 559 33,000  Level FlightAware ADS-B
Thu 11:55:27 PM 41.3810 -71.3730 59° Northeast 481 554 33,000  Level FlightAware ADS-B
Thu 11:56:12 PM 41.4330 -71.2580 59° Northeast 479 551 33,000  Level FlightAware ADS-B
Thu 11:56:52 PM 41.4800 -71.1540 59° Northeast 479 551 33,000  Level FlightAware ADS-B
Thu 11:57:27 PM 41.5190 -71.0670 59° Northeast 478 550 33,000  Level FlightAware ADS-B
Thu 11:58:07 PM 41.5650 -70.9650 59° Northeast 477 549 33,000  Level FlightAware ADS-B
Thu 11:58:52 PM 41.6160 -70.8500 59° Northeast 481 554 33,000  Level FlightAware ADS-B
Thu 11:59:49 PM 41.6760 -70.7150 59° Northeast 480 552 33,000  Level FlightAware ADS-B
Fri 12:00:31 AM 41.7280 -70.5980 59° Northeast 479 551 33,000  Level FlightAware ADS-B
Fri 12:01:16 AM 41.7760 -70.4910 59° Northeast 480 552 33,000  Level FlightAware ADS-B
Fri 12:01:51 AM 41.8190 -70.3940 59° Northeast 480 552 33,000  Level FlightAware ADS-B
Fri 12:02:27 AM 41.8540 -70.3140 60° Northeast 481 554 33,000  Level FlightAware ADS-B
Fri 12:03:12 AM 41.9080 -70.1920 59° Northeast 485 558 33,000  Level FlightAware ADS-B
Fri 12:03:51 AM 41.9550 -70.0830 60° Northeast 485 558 33,000  Level FlightAware ADS-B
Fri 12:04:36 AM 42.0060 -69.9660 60° Northeast 488 562 33,000  Level FlightAware ADS-B
Fri 12:05:16 AM 42.0460 -69.8710 60° Northeast 489 563 33,000 706 Level FlightAware ADS-B
Fri 12:06:01 AM 42.1020 -69.7430 59° Northeast 472 543 34,000 1,129 Climbing FlightAware ADS-B
Fri 12:06:41 AM 42.1470 -69.6380 60° Northeast 470 541 34,600 750 Climbing FlightAware ADS-B
Fri 12:07:21 AM 42.1900 -69.5400 59° Northeast 463 533 35,000 300 Climbing FlightAware ADS-B
Fri 12:08:01 AM 42.2330 -69.4360 61° Northeast 464 534 35,000  Level FlightAware ADS-B
Fri 12:08:41 AM 42.2760 -69.3370 60° Northeast 467 537 35,000  Level FlightAware ADS-B
Fri 12:09:21 AM 42.3180 -69.2340 61° Northeast 470 541 35,000  Level FlightAware ADS-B
Fri 12:09:56 AM 42.3550 -69.1470 60° Northeast 471 542 35,000  Level FlightAware ADS-B
Fri 12:10:36 AM 42.4000 -69.0400 60° Northeast 474 545 35,000  Level FlightAware ADS-B
Fri 12:13:14 AM 42.5430 -68.6900 61° Northeast 474 545 35,000  Level FlightAware ADS-B
Fri 12:14:14 AM 42.6060 -68.5410 60° Northeast 447 514 35,000  Level FlightAware ADS-B
Fri 12:14:50 AM 42.6360 -68.4660 61° Northeast 447 514 35,000  Level FlightAware ADS-B
Fri 12:15:38 AM 42.6770 -68.3650 61° Northeast 447 514 35,000  Level FlightAware ADS-B
Fri 12:16:14 AM 42.7080 -68.2900 61° Northeast 447 514 35,000  Level FlightAware ADS-B
Fri 12:17:02 AM 42.7490 -68.1890 61° Northeast 447 514 35,000  Level FlightAware ADS-B
Fri 12:17:37 AM 42.8350 -67.9800 61° Northeast 35,000  Level FlightAware ADS-B
Fri 12:18:17 AM 42.8780 -67.8750 61° Northeast 478 550 35,000  Level FlightAware ADS-B
Fri 12:19:02 AM 42.9260 -67.7540 62° Northeast 484 557 35,000  Level FlightAware ADS-B
Fri 12:19:42 AM 42.9700 -67.6460 61° Northeast 488 562 35,000  Level FlightAware ADS-B
Fri 12:19:52 AM 42.9800 -67.6180 64° Northeast 488 562 35,000  Level FlightAware ADS-B
Fri 12:21:07 AM 43.0610 -67.4170 61° Northeast 487 560 35,000  Level FlightAware ADS-B
Fri 12:21:47 AM 43.1050 -67.3040 62° Northeast 488 562 35,000  Level FlightAware ADS-B
Fri 12:22:53 AM 43.1730 -67.1290 62° Northeast 488 562 35,000  Level FlightAware ADS-B
Fri 12:23:32 AM 43.2170 -67.0160 62° Northeast 489 563 35,000  Level FlightAware ADS-B
Fri 12:24:12 AM 43.2600 -66.9060 62° Northeast 488 562 35,000  Level FlightAware ADS-B
Fri 12:24:52 AM 43.3030 -66.7990 61° Northeast 488 562 35,000  Level FlightAware ADS-B
Fri 12:25:27 AM 43.3410 -66.7000 62° Northeast 488 562 35,000  Level FlightAware ADS-B
Fri 12:26:12 AM 43.3890 -66.5750 62° Northeast 491 565 35,000  Level FlightAware ADS-B
Fri 12:26:52 AM 43.4330 -66.4610 62° Northeast 496 571 35,000  Level FlightAware ADS-B
Fri 12:27:37 AM 43.4800 -66.3380 62° Northeast 496 571 35,000  Level FlightAware ADS-B
Fri 12:28:18 AM 43.5230 -66.2230 63° Northeast 496 571 35,000  Level FlightAware ADS-B
Fri 12:28:57 AM 43.5650 -66.1110 63° Northeast 495 570 35,000  Level FlightAware ADS-B
Fri 12:29:42 AM 43.6120 -65.9870 62° Northeast 495 570 35,000  Level FlightAware ADS-B
Fri 12:30:22 AM 43.6540 -65.8750 63° Northeast 495 570 35,000  Level FlightAware ADS-B
Fri 12:30:57 AM 43.6900 -65.7770 63° Northeast 495 570 35,000  Level FlightAware ADS-B
Fri 12:31:42 AM 43.7380 -65.6470 63° Northeast 495 570 35,000  Level FlightAware ADS-B
Fri 12:32:22 AM 43.7790 -65.5380 62° Northeast 495 570 35,000  Level FlightAware ADS-B
Fri 12:32:57 AM 43.8160 -65.4360 63° Northeast 496 571 35,000  Level FlightAware ADS-B
Fri 12:33:38 AM 43.8580 -65.3230 63° Northeast 497 572 35,000  Level FlightAware ADS-B
Fri 12:34:18 AM 43.9000 -65.2090 63° Northeast 499 574 35,000  Level FlightAware ADS-B
Fri 12:35:03 AM 43.9470 -65.0800 63° Northeast 500 575 35,000  Level FlightAware ADS-B
Fri 12:35:43 AM 43.9880 -64.9660 63° Northeast 500 575 35,000  Level FlightAware ADS-B
Fri 12:36:23 AM 44.0300 -64.8480 64° Northeast 500 575 35,000  Level FlightAware ADS-B
Fri 12:37:08 AM 44.0750 -64.7250 63° Northeast 500 575 35,000  Level FlightAware ADS-B
Fri 12:37:43 AM 44.1130 -64.6180 64° Northeast 498 573 35,000  Level FlightAware ADS-B
Fri 12:38:21 AM 44.1530 -64.5080 63° Northeast 502 578 35,000  Level FlightAware ADS-B
Fri 12:39:07 AM 44.2000 -64.3720 64° Northeast 502 578 35,000  Level FlightAware ADS-B
Fri 12:39:49 AM 44.2430 -64.2530 63° Northeast 503 579 35,000  Level FlightAware ADS-B
Fri 12:40:35 AM 44.2890 -64.1230 64° Northeast 502 578 35,000  Level FlightAware ADS-B
Fri 12:41:15 AM 44.3310 -64.0030 64° Northeast 503 579 35,000  Level FlightAware ADS-B
Fri 12:41:58 AM 44.3730 -63.8810 64° Northeast 503 579 35,000  Level FlightAware ADS-B
Fri 12:42:30 AM 44.4060 -63.7840 65° Northeast 504 580 35,000  Level FlightAware ADS-B
Fri 12:43:14 AM 44.4520 -63.6520 64° Northeast 505 581 35,000  Level FlightAware ADS-B
Fri 12:44:09 AM 44.5050 -63.4990 64° Northeast 506 582 35,000  Level FlightAware ADS-B
Fri 12:44:44 AM 44.5410 -63.3950 64° Northeast 508 585 35,000  Level FlightAware ADS-B
Fri 12:45:24 AM 44.5830 -63.2730 64° Northeast 509 586 35,000  Level FlightAware ADS-B
Fri 12:46:09 AM 44.6290 -63.1370 65° Northeast 509 586 35,000  Level FlightAware ADS-B
Fri 12:46:44 AM 44.6640 -63.0360 64° Northeast 509 586 35,000  Level FlightAware ADS-B
Fri 12:47:39 AM 44.7160 -62.8840 64° Northeast 509 586 35,000  Level FlightAware ADS-B
Fri 12:48:19 AM 44.7570 -62.7580 65° Northeast 509 586 35,000  Level FlightAware ADS-B
Fri 12:49:02 AM 44.7920 -62.6520 65° Northeast 509 586 35,000  Level FlightAware ADS-B
Fri 12:49:50 AM 44.8330 -62.5290 65° Northeast 509 586 35,000  Level FlightAware ADS-B
Fri 12:50:26 AM 44.8630 -62.4370 65° Northeast 509 586 35,000  Level FlightAware ADS-B
Fri 12:51:14 AM 44.9040 -62.3140 65° Northeast 509 586 35,000  Level FlightAware ADS-B
Fri 12:52:02 AM 44.9450 -62.1910 65° Northeast 509 586 35,000  Level FlightAware ADS-B
Fri 12:52:38 AM 44.9750 -62.0990 65° Northeast 509 586 35,000  Level FlightAware ADS-B
Fri 12:53:38 AM 45.0260 -61.9450 65° Northeast 509 586 35,000  Level FlightAware ADS-B
Fri 12:54:26 AM 45.0660 -61.8220 65° Northeast 509 586 35,000  Level FlightAware ADS-B
Fri 12:55:02 AM 45.0970 -61.7290 65° Northeast 509 586 35,000  Level FlightAware ADS-B
Fri 12:55:51 AM 45.1380 -61.6030 65° Northeast 509 586 35,000  Level FlightAware ADS-B
Fri 12:56:36 AM 45.2440 -61.2590 66° East 501 577 35,000  Level FlightAware ADS-B
Fri 12:57:15 AM 45.2840 -61.1300 66° East 498 573 35,000  Level FlightAware ADS-B
Fri 12:57:55 AM 45.3220 -61.0100 66° East 499 574 35,000  Level FlightAware ADS-B
Fri 12:58:27 AM 45.3510 -60.9140 67° East 497 572 35,000  Level FlightAware ADS-B
Fri 12:59:07 AM 45.3890 -60.7940 66° East 497 572 35,000  Level FlightAware ADS-B
Fri 12:59:51 AM 45.4290 -60.6600 67° East 497 572 35,000  Level FlightAware ADS-B
Fri 01:00:31 AM 45.4660 -60.5400 66° East 498 573 35,000  Level FlightAware ADS-B
Fri 01:01:15 AM 45.5060 -60.4110 66° East 498 573 35,000  Level FlightAware ADS-B
Fri 01:01:55 AM 45.5420 -60.2900 67° East 498 573 35,000  Level FlightAware ADS-B
Fri 01:02:31 AM 45.5760 -60.1790 66° East 497 572 35,000  Level FlightAware ADS-B
Fri 01:03:12 AM 45.6120 -60.0580 67° East 497 572 35,000  Level FlightAware ADS-B
Fri 01:03:55 AM 45.6520 -59.9290 66° East 497 572 35,000  Level FlightAware ADS-B
Fri 01:04:33 AM 45.6860 -59.8140 67° East 497 572 35,000  Level FlightAware ADS-B
Fri 01:05:19 AM 45.7280 -59.6720 67° East 497 572 35,000  Level FlightAware ADS-B
Fri 01:05:59 AM 45.7640 -59.5540 66° East 499 574 35,000  Level FlightAware ADS-B
Fri 01:06:45 AM 45.8050 -59.4130 67° East 500 575 35,000  Level FlightAware ADS-B
Fri 01:07:25 AM 45.8400 -59.2910 68° East 503 579 35,000  Level FlightAware ADS-B
Fri 01:08:09 AM 45.8810 -59.1510 67° East 508 585 35,000  Level FlightAware ADS-B
Fri 01:08:49 AM 45.9160 -59.0260 68° East 509 586 35,000  Level FlightAware ADS-B
Fri 01:09:33 AM 45.9560 -58.8890 67° East 507 583 35,000  Level FlightAware ADS-B
Fri 01:10:15 AM 45.9920 -58.7620 68° East 506 582 35,000  Level FlightAware ADS-B
Fri 01:10:57 AM 46.0300 -58.6280 68° East 506 582 35,000  Level FlightAware ADS-B
Fri 01:13:07 AM 46.1320 -58.2830 67° East 506 582 35,000  Level FlightAware ADS-B
Fri 01:13:39 AM 46.1560 -58.1830 71° East 503 579 35,000  Level FlightAware ADS-B
Fri 01:14:27 AM 46.1920 -58.0560 68° East 503 579 35,000  Level FlightAware ADS-B
Fri 01:15:03 AM 46.2180 -57.9600 69° East 503 579 35,000  Level FlightAware ADS-B
Fri 01:15:46 AM 46.2810 -57.7330 68° East 501 577 35,000  Level FlightAware ADS-B
Fri 01:16:20 AM 46.3070 -57.6360 69° East 501 577 35,000  Level FlightAware ADS-B
Fri 01:17:11 AM 46.3450 -57.5010 68° East 501 577 35,000  Level FlightAware ADS-B
Fri 01:17:38 AM 46.3750 -57.3860 69° East 501 577 35,000  Level FlightAware ADS-B
Fri 01:18:27 AM 46.4110 -57.2570 68° East 501 577 35,000  Level FlightAware ADS-B
Fri 01:19:09 AM 46.4480 -57.1040 71° East 501 577 35,000  Level FlightAware ADS-B
Fri 01:19:46 AM 46.4770 -56.9910 70° East 499 574 35,000  Level FlightAware ADS-B
Fri 01:20:30 AM 46.5150 -56.8440 69° East 496 571 35,000  Level FlightAware ADS-B
Fri 01:21:26 AM 46.5590 -56.6690 70° East 494 568 35,000  Level FlightAware ADS-B
Fri 01:22:11 AM 46.5940 -56.5290 70° East 496 571 35,000  Level FlightAware ADS-B
Fri 01:22:51 AM 46.6260 -56.3990 70° East 505 581 35,000  Level FlightAware ADS-B
Fri 01:23:35 AM 46.6610 -56.2600 70° East 517 595 35,000  Level FlightAware ADS-B
Fri 01:24:17 AM 46.6950 -56.1180 71° East 520 598 35,000  Level FlightAware ADS-B
Fri 01:24:57 AM 46.7270 -55.9900 70° East 514 592 35,000  Level FlightAware ADS-B
Fri 01:25:40 AM 46.7600 -55.8540 70° East 506 582 35,000  Level FlightAware ADS-B
Fri 01:26:21 AM 46.7920 -55.7190 71° East 502 578 35,000  Level FlightAware ADS-B
Fri 01:27:04 AM 46.8260 -55.5790 70° East 501 577 35,000  Level FlightAware ADS-B
Fri 01:27:44 AM 46.8560 -55.4540 71° East 500 575 35,000  Level FlightAware ADS-B
Fri 01:28:29 AM 46.8900 -55.3110 71° East 499 574 35,000  Level FlightAware ADS-B
Fri 01:29:08 AM 46.9200 -55.1870 70° East 499 574 35,000  Level FlightAware ADS-B
Fri 01:29:44 AM 46.9470 -55.0690 71° East 499 574 35,000  Level FlightAware ADS-B
Fri 01:30:28 AM 46.9800 -54.9270 71° East 504 580 35,000  Level FlightAware ADS-B
Fri 01:31:10 AM 47.0120 -54.7940 71° East 511 588 35,000  Level FlightAware ADS-B
Fri 01:31:50 AM 47.0420 -54.6620 72° East 516 594 35,000  Level FlightAware ADS-B
Fri 01:32:32 AM 47.0750 -54.5190 71° East 523 602 35,000  Level FlightAware ADS-B
Fri 01:33:14 AM 47.1060 -54.3800 72° East 528 608 35,000 140 Level FlightAware ADS-B
Fri 01:33:58 AM 47.1410 -54.2270 71° East 529 609 35,200 333 Climbing FlightAware ADS-B
Fri 01:34:26 AM 47.1620 -54.1350 71° East 528 608 35,400 500 Climbing FlightAware ADS-B
Fri 01:35:10 AM 47.1960 -53.9810 72° East 528 608 35,800 439 Climbing FlightAware ADS-B
Fri 01:35:48 AM 47.2250 -53.8510 72° East 534 615 36,000 150 Climbing FlightAware ADS-B
Fri 01:36:30 AM 47.2570 -53.7090 72° East 537 618 36,000  Level FlightAware ADS-B
Fri 01:37:15 AM 47.2900 -53.5540 73° East 524 603 36,000  Level FlightAware ADS-B
Fri 01:37:54 AM 47.3190 -53.4190 72° East 516 594 36,000  Level FlightAware ADS-B
Fri 01:38:30 AM 47.3440 -53.3030 72° East 512 589 36,000  Level FlightAware ADS-B
Fri 01:39:10 AM 47.3730 -53.1700 72° East 510 587 36,000  Level FlightAware ADS-B
Fri 01:39:54 AM 47.4050 -53.0210 72° East 509 586 36,000  Level FlightAware ADS-B
Fri 01:40:38 AM 47.4350 -52.8780 73° East 509 586 36,000  Level FlightAware ADS-B
Fri 01:41:19 AM 47.4640 -52.7450 72° East 511 588 36,000  Level FlightAware ADS-B
Fri 01:42:03 AM 47.4950 -52.5950 73° East 513 590 36,000  Level FlightAware ADS-B
Fri 01:42:42 AM 47.5230 -52.4610 73° East 513 590 36,000  Level FlightAware ADS-B
Fri 01:43:26 AM 47.5530 -52.3170 73° East 515 593 36,000  Level FlightAware ADS-B
Fri 01:44:06 AM 47.5810 -52.1820 73° East 517 595 36,000  Level FlightAware ADS-B
Fri 01:44:50 AM 47.6110 -52.0320 73° East 518 596 36,000  Level FlightAware ADS-B
Fri 01:45:30 AM 47.6380 -51.8960 74° East 519 597 36,000  Level FlightAware ADS-B
Fri 01:46:12 AM 47.6670 -51.7490 74° East 520 598 36,000  Level FlightAware ADS-B
Fri 01:46:56 AM 47.6960 -51.6020 74° East 521 600 36,000  Level FlightAware ADS-B
Fri 01:47:36 AM 47.7240 -51.4640 73° East 522 601 36,000  Level FlightAware ADS-B
Fri 01:48:28 AM 47.7580 -51.2850 74° East 523 602 36,000  Level FlightAware ADS-B
Fri 01:49:13 AM 47.7880 -51.1330 74° East 524 603 36,000  Level FlightAware ADS-B
Fri 01:49:53 AM 47.8140 -50.9940 74° East 523 602 36,000  Level FlightAware ADS-B
Fri 01:50:28 AM 47.8370 -50.8720 74° East 525 604 36,000  Level FlightAware ADS-B
Fri 01:51:12 AM 47.8660 -50.7220 74° East 528 608 36,000  Level FlightAware ADS-B
Fri 01:51:53 AM 47.8940 -50.5750 74° East 528 608 36,000  Level FlightAware ADS-B
Fri 01:52:28 AM 47.9170 -50.4480 75° East 529 609 36,000  Level FlightAware ADS-B
Fri 01:53:09 AM 47.9430 -50.3070 75° East 530 610 36,000  Level FlightAware ADS-B
Fri 01:53:49 AM 47.9680 -50.1690 75° East 531 611 36,000  Level FlightAware ADS-B
Fri 01:54:29 AM 47.9930 -50.0380 74° East 534 615 36,000  Level FlightAware ADS-B
Fri 01:55:18 AM 48.0280 -49.8680 73° East 534 615 36,000  Level FlightAware ADS-B
Fri 01:55:51 AM 48.0000 -50.0000 69° East 524 603 36,000  Level ETMS Enhanced Traffic Management System
Fri 01:55:54 AM 48.0500 -49.7600 73° East 534 615 36,000  Level FlightAware ADS-B
Fri 01:56:42 AM 48.0800 -49.6160 73° East 534 615 36,000  Level FlightAware ADS-B
Fri 01:57:18 AM 48.1020 -49.5080 73° East 534 615 36,000  Level FlightAware ADS-B
Fri 01:57:54 AM 48.1240 -49.3990 73° East 534 615 36,000  Level FlightAware ADS-B
Fri 01:58:42 AM 48.1530 -49.2550 73° East 534 615 36,000  Level FlightAware ADS-B
Fri 01:59:18 AM 48.1750 -49.1470 73° East 534 615 36,000  Level FlightAware ADS-B
Fri 01:59:54 AM 48.1980 -49.0380 72° East 534 615 36,000  Level FlightAware ADS-B
Fri 02:00:42 AM 48.2270 -48.8930 73° East 534 615 36,000  Level FlightAware ADS-B
Fri 02:01:19 AM 48.2500 -48.7820 69° East 534 615 36,000  Level FlightAware ADS-B
Fri 02:02:07 AM 48.2790 -48.6370 73° East 534 615 36,000  Level FlightAware ADS-B
Fri 02:02:43 AM 48.3010 -48.5280 73° East 534 615 36,000  Level FlightAware ADS-B
Fri 02:03:31 AM 48.3310 -48.3830 73° East 534 615 36,000  Level FlightAware ADS-B
Fri 02:04:07 AM 48.3530 -48.2750 73° East 534 615 36,000  Level FlightAware ADS-B
Fri 02:04:51 AM 48.5000 -47.8167 73° East 530 610 36,000  Level Gander Center
Fri 02:05:51 AM 48.5333 -47.5833 78° East 530 610 36,000  Level Gander Center
Fri 02:06:51 AM 48.5833 -47.3833 69° East 530 610 36,000  Level Gander Center
Fri 02:07:51 AM 48.6333 -47.1667 71° East 540 621 36,000  Level Gander Center
Fri 02:08:51 AM 48.6833 -46.9500 71° East 530 610 36,000  Level Gander Center
Fri 02:09:51 AM 48.7333 -46.7500 69° East 540 621 36,000  Level Gander Center
Fri 02:11:00 AM 48.8062 -46.5438 72° East  Level FlightAware Approximate
Fri 02:18:00 AM 49.0861 -45.1957 72° East  Level FlightAware Approximate
Fri 02:19:00 AM 49.1248 -45.0019 73° East  Level FlightAware Approximate
Fri 02:20:00 AM 49.1632 -44.8078 73° East  Level FlightAware Approximate
Fri 02:21:00 AM 49.2012 -44.6134 73° East  Level FlightAware Approximate
Fri 02:22:00 AM 49.2389 -44.4187 73° East  Level FlightAware Approximate
Fri 02:23:00 AM 49.2763 -44.2237 74° East  Level FlightAware Approximate
Fri 02:24:00 AM 49.3134 -44.0284 74° East  Level FlightAware Approximate
Fri 02:25:00 AM 49.3501 -43.8328 74° East  Level FlightAware Approximate
Fri 02:26:00 AM 49.3868 -43.6370 74° East  Level FlightAware Approximate
Fri 02:27:00 AM 49.4232 -43.4410 74° East  Level FlightAware Approximate
Fri 02:28:00 AM 49.4592 -43.2446 74° East  Level FlightAware Approximate
Fri 02:29:00 AM 49.4949 -43.0480 74° East  Level FlightAware Approximate
Fri 02:30:00 AM 49.5303 -42.8511 74° East  Level FlightAware Approximate
Fri 02:31:00 AM 49.5654 -42.6539 75° East  Level FlightAware Approximate
Fri 02:32:00 AM 49.6001 -42.4564 75° East  Level FlightAware Approximate
Fri 02:33:00 AM 49.6344 -42.2587 75° East  Level FlightAware Approximate
Fri 02:34:00 AM 49.6685 -42.0607 75° East  Level FlightAware Approximate
Fri 02:35:00 AM 49.7022 -41.8624 75° East  Level FlightAware Approximate
Fri 02:36:00 AM 49.7355 -41.6638 75° East  Level FlightAware Approximate
Fri 02:37:00 AM 49.7686 -41.4649 76° East  Level FlightAware Approximate
Fri 02:38:00 AM 49.8012 -41.2658 76° East  Level FlightAware Approximate
Fri 02:39:00 AM 49.8336 -41.0664 76° East  Level FlightAware Approximate
Fri 02:40:00 AM 49.8656 -40.8667 76° East  Level FlightAware Approximate
Fri 02:41:00 AM 49.8972 -40.6668 76° East  Level FlightAware Approximate
Fri 02:42:00 AM 49.9285 -40.4666 76° East  Level FlightAware Approximate
Fri 02:43:00 AM 49.9595 -40.2662 76° East  Level FlightAware Approximate
Fri 02:43:00 AM 50.0000 -40.0000 77° East 492 566 36,000  Level ETMS Enhanced Traffic Management System
Fri 02:44:00 AM 49.9901 -40.0655 77° East  Level FlightAware Approximate
Fri 02:45:00 AM 50.0197 -39.8643 77° East  Level FlightAware Approximate
Fri 02:46:00 AM 50.0486 -39.6628 77° East  Level FlightAware Approximate
Fri 02:47:00 AM 50.0772 -39.4610 77° East  Level FlightAware Approximate
Fri 02:48:00 AM 50.1054 -39.2589 78° East  Level FlightAware Approximate
Fri 02:49:00 AM 50.1333 -39.0567 78° East  Level FlightAware Approximate
Fri 02:50:00 AM 50.2302 -38.3303 79° East 492 566 36,000  Level FlightAware Transoceanic
Fri 02:51:00 AM 50.2573 -38.1205 79° East 492 566 36,000  Level FlightAware Transoceanic
Fri 02:52:00 AM 50.2840 -37.9105 79° East 492 566 36,000  Level FlightAware Transoceanic
Fri 02:53:00 AM 50.3103 -37.7002 79° East 492 566 36,000  Level FlightAware Transoceanic
Fri 02:54:00 AM 50.3363 -37.4897 79° East 492 566 36,000  Level FlightAware Transoceanic
Fri 02:55:00 AM 50.3619 -37.2789 79° East 492 566 36,000  Level FlightAware Transoceanic
Fri 02:56:00 AM 50.3870 -37.0680 79° East 492 566 36,000  Level FlightAware Transoceanic
Fri 02:57:00 AM 50.4118 -36.8568 80° East 492 566 36,000  Level FlightAware Transoceanic
Fri 02:58:00 AM 50.4363 -36.6454 80° East 492 566 36,000  Level FlightAware Transoceanic
Fri 02:59:00 AM 50.4603 -36.4337 80° East 492 566 36,000  Level FlightAware Transoceanic
Fri 03:00:00 AM 50.4840 -36.2219 80° East 492 566 36,000  Level FlightAware Transoceanic
Fri 03:01:00 AM 50.5072 -36.0098 80° East 492 566 36,000  Level FlightAware Transoceanic
Fri 03:02:00 AM 50.5301 -35.7976 80° East 492 566 36,000  Level FlightAware Transoceanic
Fri 03:03:00 AM 50.5526 -35.5851 81° East 492 566 36,000  Level FlightAware Transoceanic
Fri 03:04:00 AM 50.5747 -35.3724 81° East 492 566 36,000  Level FlightAware Transoceanic
Fri 03:05:00 AM 50.5965 -35.1596 81° East 492 566 36,000  Level FlightAware Transoceanic
Fri 03:06:00 AM 50.6178 -34.9465 81° East 492 566 36,000  Level FlightAware Transoceanic
Fri 03:07:00 AM 50.6387 -34.7333 81° East 492 566 36,000  Level FlightAware Transoceanic
Fri 03:08:00 AM 50.6593 -34.5198 81° East 492 566 36,000  Level FlightAware Transoceanic
Fri 03:09:00 AM 50.6795 -34.3062 82° East 492 566 36,000  Level FlightAware Transoceanic
Fri 03:10:00 AM 50.6992 -34.0924 82° East 492 566 36,000  Level FlightAware Transoceanic
Fri 03:11:00 AM 50.7186 -33.8784 82° East 492 566 36,000  Level FlightAware Transoceanic
Fri 03:12:00 AM 50.7376 -33.6642 82° East 492 566 36,000  Level FlightAware Transoceanic
Fri 03:13:00 AM 50.7562 -33.4499 82° East 492 566 36,000  Level FlightAware Transoceanic
Fri 03:14:00 AM 50.7744 -33.2354 82° East 492 566 36,000  Level FlightAware Transoceanic
Fri 03:15:00 AM 50.7922 -33.0207 83° East 492 566 36,000  Level FlightAware Transoceanic
Fri 03:16:00 AM 50.8097 -32.8059 83° East 492 566 36,000  Level FlightAware Transoceanic
Fri 03:17:00 AM 50.8267 -32.5909 83° East 492 566 36,000  Level FlightAware Transoceanic
Fri 03:18:00 AM 50.8433 -32.3758 83° East 492 566 36,000  Level FlightAware Transoceanic
Fri 03:19:00 AM 50.8595 -32.1605 83° East 492 566 36,000  Level FlightAware Transoceanic
Fri 03:20:00 AM 50.8754 -31.9451 83° East 492 566 36,000  Level FlightAware Transoceanic
Fri 03:21:00 AM 50.8908 -31.7295 84° East 492 566 36,000  Level FlightAware Transoceanic
Fri 03:22:00 AM 50.9059 -31.5137 84° East 492 566 36,000  Level FlightAware Transoceanic
Fri 03:23:00 AM 50.9205 -31.2979 84° East 492 566 36,000  Level FlightAware Transoceanic
Fri 03:24:00 AM 50.9347 -31.0819 84° East 492 566 36,000  Level FlightAware Transoceanic
Fri 03:25:00 AM 50.9486 -30.8657 84° East 492 566 36,000  Level FlightAware Transoceanic
Fri 03:26:00 AM 50.9621 -30.6495 84° East 492 566 36,000  Level FlightAware Transoceanic
Fri 03:27:00 AM 50.9751 -30.4331 85° East 492 566 36,000  Level FlightAware Transoceanic
Fri 03:28:00 AM 50.9878 -30.2166 85° East 492 566 36,000  Level FlightAware Transoceanic
Fri 03:29:00 AM 50.9996 -30.0067 85° East  Level FlightAware Approximate
Fri 03:30:00 AM 51.0110 -29.7967 85° East  Level FlightAware Approximate
Fri 03:30:00 AM 51.0000 -30.0000 77° East 462 532 36,000  Level ETMS Enhanced Traffic Management System
Fri 03:31:00 AM 51.0275 -29.8075 77° East  Level FlightAware Approximate
Fri 03:32:00 AM 51.0566 -29.6017 77° East  Level FlightAware Approximate
Fri 03:33:00 AM 51.0853 -29.3955 77° East  Level FlightAware Approximate
Fri 03:34:00 AM 51.1136 -29.1892 78° East  Level FlightAware Approximate
Fri 03:35:00 AM 51.1415 -28.9825 78° East  Level FlightAware Approximate
Fri 03:36:00 AM 51.1944 -28.6008 78° East 462 532 36,000  Level FlightAware Transoceanic
Fri 03:37:00 AM 51.2208 -28.3999 78° East 462 532 36,000  Level FlightAware Transoceanic
Fri 03:38:00 AM 51.2469 -28.1989 78° East 462 532 36,000  Level FlightAware Transoceanic
Fri 03:39:00 AM 51.2726 -27.9976 79° East 462 532 36,000  Level FlightAware Transoceanic
Fri 03:40:00 AM 51.2980 -27.7960 79° East 462 532 36,000  Level FlightAware Transoceanic
Fri 03:41:00 AM 51.3230 -27.5943 79° East 462 532 36,000  Level FlightAware Transoceanic
Fri 03:42:00 AM 51.3477 -27.3923 79° East 462 532 36,000  Level FlightAware Transoceanic
Fri 03:43:00 AM 51.3720 -27.1902 79° East 462 532 36,000  Level FlightAware Transoceanic
Fri 03:44:00 AM 51.3960 -26.9878 79° East 462 532 36,000  Level FlightAware Transoceanic
Fri 03:45:00 AM 51.4197 -26.7852 79° East 462 532 36,000  Level FlightAware Transoceanic
Fri 03:46:00 AM 51.4429 -26.5824 80° East 462 532 36,000  Level FlightAware Transoceanic
Fri 03:47:00 AM 51.4659 -26.3794 80° East 462 532 36,000  Level FlightAware Transoceanic
Fri 03:48:00 AM 51.4884 -26.1762 80° East 462 532 36,000  Level FlightAware Transoceanic
Fri 03:49:00 AM 51.5107 -25.9727 80° East 462 532 36,000  Level FlightAware Transoceanic
Fri 03:50:00 AM 51.5326 -25.7691 80° East 462 532 36,000  Level FlightAware Transoceanic
Fri 03:51:00 AM 51.5541 -25.5653 80° East 462 532 36,000  Level FlightAware Transoceanic
Fri 03:52:00 AM 51.5753 -25.3613 81° East 462 532 36,000  Level FlightAware Transoceanic
Fri 03:53:00 AM 51.5961 -25.1572 81° East 462 532 36,000  Level FlightAware Transoceanic
Fri 03:54:00 AM 51.6166 -24.9528 81° East 462 532 36,000  Level FlightAware Transoceanic
Fri 03:55:00 AM 51.6367 -24.7482 81° East 462 532 36,000  Level FlightAware Transoceanic
Fri 03:56:00 AM 51.6564 -24.5435 81° East 462 532 36,000  Level FlightAware Transoceanic
Fri 03:57:00 AM 51.6758 -24.3386 81° East 462 532 36,000  Level FlightAware Transoceanic
Fri 03:58:00 AM 51.6949 -24.1335 82° East 462 532 36,000  Level FlightAware Transoceanic
Fri 03:59:00 AM 51.7135 -23.9282 82° East 462 532 36,000  Level FlightAware Transoceanic
Fri 04:00:00 AM 51.7319 -23.7228 82° East 462 532 36,000  Level FlightAware Transoceanic
Fri 04:01:00 AM 51.7498 -23.5172 82° East 462 532 36,000  Level FlightAware Transoceanic
Fri 04:02:00 AM 51.7674 -23.3115 82° East 462 532 36,000  Level FlightAware Transoceanic
Fri 04:03:00 AM 51.7847 -23.1056 82° East 462 532 36,000  Level FlightAware Transoceanic
Fri 04:04:00 AM 51.8016 -22.8995 83° East 462 532 36,000  Level FlightAware Transoceanic
Fri 04:05:00 AM 51.8181 -22.6933 83° East 462 532 36,000  Level FlightAware Transoceanic
Fri 04:06:00 AM 51.8343 -22.4869 83° East 462 532 36,000  Level FlightAware Transoceanic
Fri 04:07:00 AM 51.8501 -22.2804 83° East 462 532 36,000  Level FlightAware Transoceanic
Fri 04:08:00 AM 51.8655 -22.0738 83° East 462 532 36,000  Level FlightAware Transoceanic
Fri 04:09:00 AM 51.8806 -21.8670 83° East 462 532 36,000  Level FlightAware Transoceanic
Fri 04:10:00 AM 51.8953 -21.6600 84° East 462 532 36,000  Level FlightAware Transoceanic
Fri 04:11:00 AM 51.9097 -21.4530 84° East 462 532 36,000  Level FlightAware Transoceanic
Fri 04:12:00 AM 51.9237 -21.2458 84° East 462 532 36,000  Level FlightAware Transoceanic
Fri 04:13:00 AM 51.9373 -21.0384 84° East 462 532 36,000  Level FlightAware Transoceanic
Fri 04:14:00 AM 51.9506 -20.8310 84° East 462 532 36,000  Level FlightAware Transoceanic
Fri 04:15:00 AM 51.9635 -20.6234 84° East 462 532 36,000  Level FlightAware Transoceanic
Fri 04:16:00 AM 51.9760 -20.4157 84° East 462 532 36,000  Level FlightAware Transoceanic
Fri 04:17:00 AM 51.9882 -20.2079 85° East 462 532 36,000  Level FlightAware Transoceanic
Fri 04:18:00 AM 52.0004 -19.9934 85° East  Level FlightAware Approximate
Fri 04:19:00 AM 52.0005 -19.9867 86° East  Level FlightAware Approximate
Fri 04:20:00 AM 52.0084 -19.7716 86° East  Level FlightAware Approximate
Fri 04:21:00 AM 52.0160 -19.5564 87° East  Level FlightAware Approximate
Fri 04:22:00 AM 52.0231 -19.3412 87° East  Level FlightAware Approximate
Fri 04:23:00 AM 52.0299 -19.1259 87° East  Level FlightAware Approximate
Fri 04:24:00 AM 52.0362 -18.9105 87° East  Level FlightAware Approximate
Fri 04:25:00 AM 52.0422 -18.6951 87° East  Level FlightAware Approximate
Fri 04:26:00 AM 52.0478 -18.4796 88° East  Level FlightAware Approximate
Fri 04:27:00 AM 52.0530 -18.2640 88° East  Level FlightAware Approximate
Fri 04:28:00 AM 52.0578 -18.0484 88° East  Level FlightAware Approximate
Fri 04:29:00 AM 52.0621 -17.8328 88° East  Level FlightAware Approximate
Fri 04:30:00 AM 52.0662 -17.6171 88° East  Level FlightAware Approximate
Fri 04:31:00 AM 52.0698 -17.4014 88° East  Level FlightAware Approximate
Fri 04:32:00 AM 52.0730 -17.1857 89° East  Level FlightAware Approximate
Fri 04:33:00 AM 52.0758 -16.9699 89° East  Level FlightAware Approximate
Fri 04:34:00 AM 52.0782 -16.7541 89° East  Level FlightAware Approximate
Fri 04:35:00 AM 52.0803 -16.5383 89° East  Level FlightAware Approximate
Fri 04:36:00 AM 52.0819 -16.3224 89° East  Level FlightAware Approximate
Fri 04:37:00 AM 52.0831 -16.1066 89° East  Level FlightAware Approximate
Fri 04:38:00 AM 52.0840 -15.8907 90° East  Level FlightAware Approximate
Fri 04:39:00 AM 52.0844 -15.6748 90° East  Level FlightAware Approximate
Fri 04:40:00 AM 52.0845 -15.4590 90° East  Level FlightAware Approximate
Fri 04:41:00 AM 52.0842 -15.2431 90° East  Level FlightAware Approximate
Fri 04:42:00 AM 52.0835 -15.0272 90° East  Level FlightAware Approximate
Fri 04:43:00 AM 52.0829 -14.8114 90° East  Level FlightAware Approximate
Fri 04:44:00 AM 52.0820 -14.5955 90° East  Level FlightAware Approximate
Fri 04:45:00 AM 52.0807 -14.3797 90° East  Level FlightAware Approximate
Fri 04:46:00 AM 52.0790 -14.1638 91° East  Level FlightAware Approximate
Fri 04:47:00 AM 52.0769 -13.9480 91° East  Level FlightAware Approximate
Fri 04:48:00 AM 52.0744 -13.7322 91° East  Level FlightAware Approximate
Fri 04:49:00 AM 52.0715 -13.5165 91° East  Level FlightAware Approximate
Fri 04:50:00 AM 52.0683 -13.3007 91° East  Level FlightAware Approximate
Fri 04:51:00 AM 52.0646 -13.0850 91° East  Level FlightAware Approximate
Fri 04:52:00 AM 52.0606 -12.8694 92° East  Level FlightAware Approximate
Fri 04:52:33 AM 51.9730 -13.0630 92° East 434 499 36,000  Level FlightAware ADS-B
Fri 04:53:00 AM 52.0561 -12.6537 92° East  Level FlightAware Approximate
Fri 04:53:12 AM 51.9730 -12.9550 90° East 434 499 36,000  Level FlightAware ADS-B
Fri 04:54:00 AM 51.9730 -12.8220 90° East 434 499 36,000  Level FlightAware ADS-B
Fri 04:54:36 AM 51.9730 -12.7220 90° East 434 499 36,000  Level FlightAware ADS-B
Fri 04:55:24 AM 51.9730 -12.5890 90° East 434 499 36,000  Level FlightAware ADS-B
Fri 04:56:00 AM 51.9730 -12.4890 90° East 434 499 36,000  Level FlightAware ADS-B
Fri 04:56:36 AM 51.9730 -12.3900 90° East 434 499 36,000  Level FlightAware ADS-B
Fri 04:57:33 AM 51.9670 -12.0770 92° East 434 499 36,000  Level FlightAware ADS-B
Fri 04:58:28 AM 51.9650 -11.9020 91° East 434 499 36,000  Level FlightAware ADS-B
Fri 04:59:13 AM 51.9630 -11.7530 91° East 434 499 36,000  Level FlightAware ADS-B
Fri 04:59:50 AM 51.9610 -11.6560 92° East 434 499 36,000  Level FlightAware ADS-B
Fri 05:00:28 AM 51.9590 -11.5070 91° East 434 499 36,000  Level FlightAware ADS-B
Fri 05:01:28 AM 51.9560 -11.3180 91° East 434 499 36,000  Level FlightAware ADS-B
Fri 05:02:28 AM 51.9520 -11.1230 92° East 434 499 36,000  Level FlightAware ADS-B
Fri 05:03:08 AM 51.9500 -10.9940 91° East 434 499 36,000  Level FlightAware ADS-B
Fri 05:03:55 AM 51.9470 -10.8510 92° East 434 499 36,000  Level FlightAware ADS-B
Fri 05:04:28 AM 51.9440 -10.7310 92° East 434 499 36,000  Level FlightAware ADS-B
Fri 05:05:10 AM 51.9410 -10.5950 92° East 433 498 36,000  Level FlightAware ADS-B
Fri 05:05:52 AM 51.9380 -10.4590 92° East 433 498 36,000  Level FlightAware ADS-B
Fri 05:06:37 AM 51.9340 -10.3230 93° East 434 499 36,000  Level FlightAware ADS-B
Fri 05:07:12 AM 51.9310 -10.2030 92° East 434 499 36,000  Level FlightAware ADS-B
Fri 05:07:57 AM 51.9270 -10.0570 92° East 434 499 36,000  Level FlightAware ADS-B
Fri 05:08:38 AM 51.9230 -9.9180 93° East 434 499 36,000  Level FlightAware ADS-B
Fri 05:09:20 AM 51.9190 -9.7850 93° East 433 498 36,000  Level FlightAware ADS-B
Fri 05:09:58 AM 51.9150 -9.6620 93° East 434 499 36,000  Level FlightAware ADS-B
Fri 05:10:38 AM 51.9100 -9.5290 93° East 433 498 36,000  Level FlightAware ADS-B
Fri 05:11:20 AM 51.9060 -9.3900 93° East 434 499 36,000  Level FlightAware ADS-B
Fri 05:12:05 AM 51.9040 -9.2500 91° East 434 499 36,000  Level FlightAware ADS-B
Fri 05:12:49 AM 51.9020 -9.1080 91° East 434 499 36,000  Level FlightAware ADS-B
Fri 05:13:27 AM 51.9000 -8.9970 92° East 434 499 36,000  Level FlightAware ADS-B
Fri 05:14:02 AM 51.8965 -8.8633 92° East 466 536 36,000  Level FlightAware UK
Fri 05:14:25 AM 51.8950 -8.8350 92° East 434 499 36,000  Level FlightAware ADS-B
Fri 05:15:02 AM 51.8898 -8.6687 92° East 468 539 36,000  Level FlightAware UK
Fri 05:15:02 AM 51.8910 -8.7190 92° East 434 499 36,000  Level FlightAware ADS-B
Fri 05:15:32 AM 51.8855 -8.5716 92° East 466 536 36,000  Level FlightAware UK
Fri 05:15:50 AM 51.8830 -8.5180 92° East 435 501 36,000  Level FlightAware ADS-B
Fri 05:16:30 AM 51.8770 -8.3880 92° East 435 501 36,000  Level FlightAware ADS-B
Fri 05:16:32 AM 51.8766 -8.3773 92° East 468 539 36,000  Level FlightAware UK
Fri 05:17:02 AM 51.8721 -8.2802 92° East 468 539 36,000  Level FlightAware UK
Fri 05:17:11 AM 51.8710 -8.2560 92° East 434 499 36,000  Level FlightAware ADS-B
Fri 05:17:48 AM 51.8660 -8.1460 94° East 434 499 36,000  Level FlightAware ADS-B
Fri 05:18:32 AM 51.8597 -7.9871 94° East 468 539 36,000  Level FlightAware UK
Fri 05:18:38 AM 51.8590 -7.9740 94° East 434 499 36,000  Level FlightAware ADS-B
Fri 05:19:08 AM 51.8541 -7.8708 94° East 468 539 36,000  Level FlightAware UK
Fri 05:19:14 AM 51.8540 -7.8640 94° East 434 499 36,000 -733 Level FlightAware ADS-B
Fri 05:20:03 AM 51.8460 -7.7070 95° East 35,500 -786 Descending FlightAware ADS-B
Fri 05:20:38 AM 51.8395 -7.5813 95° East 460 529 34,900 -769 Descending FlightAware UK
Fri 05:20:42 AM 51.8390 -7.5760 95° East 430 495 35,000 -600 Climbing FlightAware ADS-B
Fri 05:21:18 AM 51.8340 -7.4630 94° East 435 501 34,500 -779 Descending FlightAware ADS-B
Fri 05:21:59 AM 51.8270 -7.3260 95° East 440 506 34,000 -825 Descending FlightAware ADS-B
Fri 05:22:38 AM 51.8204 -7.1926 95° East 470 541 33,400 -818 Descending FlightAware UK
Fri 05:22:43 AM 51.8190 -7.1850 95° East 442 509 33,400 -600 Level FlightAware ADS-B
Fri 05:23:18 AM 51.8130 -7.0700 95° East 444 511 33,000 -857 Descending FlightAware ADS-B
Fri 05:24:00 AM 51.8040 -6.9280 96° East 444 511 32,300 -963 Descending FlightAware ADS-B
Fri 05:24:39 AM 51.7964 -6.7955 96° East 472 543 31,700 -900 Descending FlightAware UK
Fri 05:24:40 AM 51.7960 -6.7930 96° East 443 510 31,700 -732 Level FlightAware ADS-B
Fri 05:25:20 AM 51.7890 -6.6680 95° East 442 509 31,200 -525 Descending FlightAware ADS-B
Fri 05:26:00 AM 51.7810 -6.5340 95° East 441 507 31,000 -154 Descending FlightAware ADS-B
Fri 05:26:38 AM 51.7750 -6.4060 95° East 441 507 31,000  Level FlightAware ADS-B
Fri 05:26:39 AM 51.7750 -6.4020 95° East 472 543 31,000  Level FlightAware UK
Fri 05:27:09 AM 51.7712 -6.3034 95° East 474 545 31,000  Level FlightAware UK
Fri 05:27:19 AM 51.7700 -6.2740 95° East 442 509 31,000  Level FlightAware ADS-B
Fri 05:28:05 AM 51.7640 -6.1230 94° East 442 509 31,000  Level FlightAware ADS-B
Fri 05:28:39 AM 51.7591 -6.0075 94° East 474 545 31,000  Level FlightAware UK
Fri 05:28:44 AM 51.7580 -5.9950 94° East 442 509 31,000  Level FlightAware ADS-B
Fri 05:29:28 AM 51.7520 -5.8500 94° East 441 507 31,000  Level FlightAware ADS-B
Fri 05:30:08 AM 51.7460 -5.7190 94° East 441 507 31,000  Level FlightAware ADS-B
Fri 05:30:09 AM 51.7460 -5.7114 94° East 474 545 31,000  Level FlightAware UK
Fri 05:30:39 AM 51.7414 -5.6132 94° East 472 543 31,000  Level FlightAware UK
Fri 05:30:44 AM 51.7410 -5.5980 94° East 441 507 31,000  Level FlightAware ADS-B
Fri 05:31:33 AM 51.7537 -5.4373 94° East 472 543 31,000  Level FlightAware UK
Fri 05:31:36 AM 51.7540 -5.4310 94° East 441 507 31,000  Level FlightAware ADS-B
Fri 05:32:16 AM 51.7640 -5.3010 83° East 440 506 31,000  Level FlightAware ADS-B
Fri 05:33:00 AM 51.7760 -5.1550 82° East 440 506 31,000  Level FlightAware ADS-B
Fri 05:33:40 AM 51.7870 -5.0250 82° East 428 493 31,000  Level FlightAware ADS-B
Fri 05:34:18 AM 51.7960 -4.9120 83° East 405 466 31,000  Level FlightAware ADS-B
Fri 05:34:57 AM 51.7997 -4.7917 83° East 432 497 31,000  Level FlightAware UK
Fri 05:35:15 AM 51.7970 -4.7430 83° East 399 459 31,000  Level FlightAware ADS-B
Fri 05:36:00 AM 51.7830 -4.6140 100° East 398 458 31,000  Level FlightAware ADS-B
Fri 05:36:40 AM 51.7680 -4.4980 102° East 399 459 31,000  Level FlightAware ADS-B
Fri 05:37:19 AM 51.7530 -4.3850 102° East 398 458 31,000  Level FlightAware ADS-B
Fri 05:37:59 AM 51.7390 -4.2690 101° East 394 453 31,000  Level FlightAware ADS-B
Fri 05:38:42 AM 51.7260 -4.1680 102° East 396 456 31,000 -439 Level FlightAware ADS-B
Fri 05:39:21 AM 51.7080 -4.0240 102° East 438 504 30,400 -600 Descending FlightAware UK
Fri 05:39:22 AM 51.7110 -4.0490 102° East 404 465 30,600 -875 Climbing FlightAware ADS-B
Fri 05:40:09 AM 51.6900 -3.8870 102° East 397 457 29,700 -1,091 Descending FlightAware ADS-B
Fri 05:40:39 AM 51.6783 -3.7964 102° East 422 486 29,200 -1,021 Descending FlightAware UK
Fri 05:40:56 AM 51.6720 -3.7500 102° East 391 450 28,900 -964 Descending FlightAware ADS-B
Fri 05:41:35 AM 51.6580 -3.6430 102° East 385 443 28,300 -986 Descending FlightAware ADS-B
Fri 05:42:09 AM 51.6445 -3.5423 102° East 412 474 27,700 -1,080 Descending FlightAware UK
Fri 05:42:25 AM 51.6389 -3.5000 102° East 383 441 27,400 -750 Descending FlightAware ADS-B
Fri 05:43:05 AM 51.6245 -3.3897 102° East 383 441 27,000 -333 Descending FlightAware ADS-B
Fri 05:43:37 AM 51.6137 -3.3023 101° East 374 430 27,000  Level FlightAware ADS-B
Fri 05:44:22 AM 51.5980 -3.1820 102° East 380 437 27,000  Level FlightAware ADS-B
Fri 05:44:34 AM 51.5939 -3.1481 101° East 377 434 27,000 -545 Level FlightAware ADS-B
Fri 05:45:06 AM 51.5822 -3.0583 102° East 387 445 26,600 -1,031 Descending FlightAware ADS-B
Fri 05:45:38 AM 51.5702 -2.9671 102° East 383 441 25,900 -1,200 Descending FlightAware ADS-B
Fri 05:46:21 AM 51.5549 -2.8506 102° East 383 441 25,100 -1,216 Descending FlightAware ADS-B
Fri 05:46:52 AM 51.5438 -2.7658 102° East 394 453 24,400 -1,171 Descending FlightAware UK
Fri 05:47:02 AM 51.5404 -2.7405 102° East 367 422 24,300 -1,091 Descending FlightAware ADS-B
Fri 05:47:36 AM 51.5285 -2.6509 102° East 362 417 23,600 -1,182 Descending FlightAware ADS-B
Fri 05:48:08 AM 51.5175 -2.5699 102° East 361 415 23,000 -1,219 Descending FlightAware ADS-B
Fri 05:48:40 AM 51.5059 -2.4850 102° East 354 407 22,300 -1,292 Descending FlightAware ADS-B
Fri 05:49:13 AM 51.4945 -2.4004 102° East 354 407 21,600 -1,313 Descending FlightAware ADS-B
Fri 05:49:44 AM 51.4841 -2.3212 102° East 351 404 20,900 -1,452 Descending FlightAware ADS-B
Fri 05:50:15 AM 51.4741 -2.2427 102° East 348 400 20,100 -1,475 Descending FlightAware ADS-B
Fri 05:50:45 AM 51.4644 -2.1674 102° East 344 396 19,400 -1,377 Descending FlightAware ADS-B
Fri 05:51:16 AM 51.4531 -2.0913 103° East 338 389 18,700 -1,355 Descending FlightAware ADS-B
Fri 05:51:47 AM 51.4422 -2.0162 103° East 335 386 18,000 -1,364 Descending FlightAware ADS-B
Fri 05:52:22 AM 51.4292 -1.9318 104° East 332 382 17,200 -1,385 Descending FlightAware ADS-B
Fri 05:52:52 AM 51.4181 -1.8604 104° East 332 382 16,500 -1,400 Descending FlightAware ADS-B
Fri 05:53:22 AM 51.4071 -1.7895 104° East 326 375 15,800 -1,355 Descending FlightAware ADS-B
Fri 05:53:54 AM 51.3956 -1.7168 104° East 327 376 15,100 -1,406 Descending FlightAware ADS-B
Fri 05:54:26 AM 51.3839 -1.6422 104° East 322 371 14,300 -957 Descending FlightAware ADS-B
Fri 05:55:03 AM 51.3711 -1.5595 104° East 296 341 14,000 -269 Descending FlightAware ADS-B
Fri 05:55:33 AM 51.3620 -1.4967 103° East 271 312 14,000  Level FlightAware ADS-B
Fri 05:56:03 AM 51.3539 -1.4401 103° East 256 295 14,000  Level FlightAware ADS-B
Fri 05:56:33 AM 51.3459 -1.3848 103° East 256 295 14,000 -290 Level FlightAware ADS-B
Fri 05:57:05 AM 51.3375 -1.3271 103° East 257 296 13,700 -508 Descending FlightAware ADS-B
Fri 05:57:32 AM 51.3303 -1.2759 103° East 253 291 13,500 -577 Descending FlightAware ADS-B
Fri 05:57:57 AM 51.3237 -1.2303 103° East 253 291 13,200 -682 Descending FlightAware ADS-B
Fri 05:58:16 AM 51.3183 -1.1958 104° East 253 291 13,000 -643 Descending FlightAware ADS-B
Fri 05:58:25 AM 51.3159 -1.1794 103° East 252 290 12,900 -353 Descending FlightAware ADS-B
Fri 05:58:33 AM 51.3144 -1.1648 99° East 250 288 12,900 -353 Level FlightAware ADS-B
Fri 05:58:42 AM 51.3136 -1.1482 94° East 249 287 12,800 -600 Descending FlightAware ADS-B
Fri 05:59:13 AM 51.3127 -1.0912 91° East 249 287 12,500 -581 Descending FlightAware ADS-B
Fri 05:59:44 AM 51.3112 -1.0342 92° East 249 287 12,200 -492 Descending FlightAware ADS-B
Fri 06:00:14 AM 51.3096 -0.9793 93° East 247 284 12,000 -316 Descending FlightAware ADS-B
Fri 06:00:41 AM 51.3085 -0.9298 92° East 250 288 11,900 -414 Descending FlightAware ADS-B
Fri 06:01:12 AM 51.3083 -0.8747 90° East 247 284 11,600 -590 Descending FlightAware ADS-B
Fri 06:01:42 AM 51.3079 -0.8182 91° East 246 283 11,300 -590 Descending FlightAware ADS-B
Fri 06:02:13 AM 51.3068 -0.7620 92° East 245 282 11,000 -444 Descending FlightAware ADS-B
Fri 06:02:36 AM 51.3058 -0.7204 92° East 246 283 10,900 -429 Descending FlightAware ADS-B
Fri 06:03:09 AM 51.3049 -0.6622 91° East 246 283 10,600 -476 Descending FlightAware ADS-B
Fri 06:03:39 AM 51.3043 -0.6081 91° East 244 281 10,400 -492 Descending FlightAware ADS-B
Fri 06:04:10 AM 51.3040 -0.5520 90° East 249 287 10,100 -522 Descending FlightAware ADS-B
Fri 06:04:25 AM 51.3040 -0.5224 90° East 251 289 10,000 -581 Descending FlightAware ADS-B
Fri 06:04:41 AM 51.3041 -0.4927 90° East 250 288 9,800 -563 Descending FlightAware ADS-B
Fri 06:04:57 AM 51.3038 -0.4632 91° East 248 285 9,700 -364 Descending FlightAware ADS-B
Fri 06:05:14 AM 51.3036 -0.4322 91° East 247 284 9,600 -545 Descending FlightAware ADS-B
Fri 06:05:19 AM 51.3032 -0.4230 94° East 247 284 9,500 -600 Descending FlightAware ADS-B
Fri 06:05:24 AM 51.3021 -0.4160 104° East 248 285 9,500 -600 Level FlightAware ADS-B
Fri 06:05:29 AM 51.3004 -0.4072 107° East 248 285 9,400 -353 Descending FlightAware ADS-B
Fri 06:05:41 AM 51.2959 -0.3847 108° East 247 284 9,400 -429 Level FlightAware ADS-B
Fri 06:05:57 AM 51.2915 -0.3564 104° East 245 282 9,200 -643 Descending FlightAware ADS-B
Fri 06:06:09 AM 51.2883 -0.3354 104° East 245 282 9,100 -444 Descending FlightAware ADS-B
Fri 06:06:24 AM 51.2843 -0.3086 103° East 248 285 9,000 -214 Descending FlightAware ADS-B
Fri 06:06:37 AM 51.2807 -0.2854 104° East 249 287 9,000  Level FlightAware ADS-B
Fri 06:06:44 AM 51.2781 -0.2751 112° Southeast 250 288 9,000  Level FlightAware ADS-B
Fri 06:06:52 AM 51.2720 -0.2615 126° Southeast 254 292 9,000  Level FlightAware ADS-B
Fri 06:07:00 AM 51.2646 -0.2534 145° Southeast 258 297 9,000  Level FlightAware ADS-B
Fri 06:07:07 AM 51.2568 -0.2467 152° Southeast 262 302 9,000  Level FlightAware ADS-B
Fri 06:07:20 AM 51.2404 -0.2429 172° South 267 307 9,000  Level FlightAware ADS-B
Fri 06:07:24 AM 51.2360 -0.2438 187° South 268 308 9,000  Level FlightAware ADS-B
Fri 06:07:34 AM 51.2242 -0.2490 195° South 270 311 9,000  Level FlightAware ADS-B
Fri 06:07:39 AM 51.2183 -0.2548 212° Southwest 272 313 9,000  Level FlightAware ADS-B
Fri 06:07:42 AM 51.2151 -0.2584 216° Southwest 273 314 9,000  Level FlightAware ADS-B
Fri 06:07:47 AM 51.2109 -0.2639 219° Southwest 274 315 9,000  Level FlightAware ADS-B
Fri 06:07:50 AM 51.2084 -0.2685 229° Southwest 274 315 9,000  Level FlightAware ADS-B
Fri 06:07:55 AM 51.2052 -0.2770 239° Southwest 273 314 9,000  Level FlightAware ADS-B
Fri 06:07:58 AM 51.2036 -0.2844 251° West 272 313 9,000  Level FlightAware ADS-B
Fri 06:08:02 AM 51.2024 -0.2902 252° West 270 311 9,000  Level FlightAware ADS-B
Fri 06:08:06 AM 51.2017 -0.3001 264° West 270 311 9,000  Level FlightAware ADS-B
Fri 06:08:13 AM 51.2024 -0.3140 275° West 268 308 9,000  Level FlightAware ADS-B
Fri 06:08:18 AM 51.2043 -0.3235 288° West 267 307 9,000  Level FlightAware ADS-B
Fri 06:08:24 AM 51.2073 -0.3324 298° West 266 306 9,000  Level FlightAware ADS-B
Fri 06:08:30 AM 51.2123 -0.3434 306° West 265 305 9,000  Level FlightAware ADS-B
Fri 06:08:37 AM 51.2190 -0.3522 320° Northwest 263 303 9,000  Level FlightAware ADS-B
Fri 06:08:54 AM 51.2359 -0.3689 328° Northwest 265 305 9,000  Level FlightAware ADS-B
Fri 06:09:09 AM 51.2515 -0.3847 328° Northwest 263 303 9,000  Level FlightAware ADS-B
Fri 06:09:24 AM 51.2670 -0.4003 328° Northwest 261 300 9,000  Level FlightAware ADS-B
Fri 06:09:40 AM 51.2830 -0.4171 327° Northwest 261 300 9,000  Level FlightAware ADS-B
Fri 06:09:55 AM 51.2984 -0.4330 327° Northwest 263 303 9,000  Level FlightAware ADS-B
Fri 06:10:12 AM 51.3155 -0.4513 326° Northwest 262 302 9,000  Level FlightAware ADS-B
Fri 06:10:19 AM 51.3235 -0.4582 331° Northwest 259 298 9,000  Level FlightAware ADS-B
Fri 06:10:23 AM 51.3276 -0.4599 346° North 256 295 9,000  Level FlightAware ADS-B
Fri 06:10:27 AM 51.3326 -0.4611 351° North 255 293 9,000  Level FlightAware ADS-B
Fri 06:10:30 AM 51.3363 -0.4615 356° North 254 292 9,000  Level FlightAware ADS-B
Fri 06:10:36 AM 51.3430 -0.4607 North 253 291 9,000  Level FlightAware ADS-B
Fri 06:10:44 AM 51.3521 -0.4566 16° North 254 292 9,000  Level FlightAware ADS-B
Fri 06:10:47 AM 51.3560 -0.4533 28° Northeast 252 290 9,000  Level FlightAware ADS-B
Fri 06:10:51 AM 51.3591 -0.4501 33° Northeast 252 290 9,000  Level FlightAware ADS-B
Fri 06:10:56 AM 51.3639 -0.4429 43° Northeast 250 288 9,000  Level FlightAware ADS-B
Fri 06:11:03 AM 51.3687 -0.4326 53° Northeast 248 285 9,000  Level FlightAware ADS-B
Fri 06:11:06 AM 51.3704 -0.4277 61° Northeast 247 284 9,000  Level FlightAware ADS-B
Fri 06:11:10 AM 51.3721 -0.4208 68° East 246 283 9,000  Level FlightAware ADS-B
Fri 06:11:15 AM 51.3734 -0.4120 77° East 246 283 9,000  Level FlightAware ADS-B
Fri 06:11:19 AM 51.3738 -0.4048 85° East 246 283 9,000  Level FlightAware ADS-B
Fri 06:11:23 AM 51.3737 -0.3992 92° East 246 283 9,000  Level FlightAware ADS-B
Fri 06:11:29 AM 51.3724 -0.3865 99° East 247 284 9,000  Level FlightAware ADS-B
Fri 06:11:36 AM 51.3697 -0.3761 113° Southeast 250 288 9,000  Level FlightAware ADS-B
Fri 06:11:41 AM 51.3667 -0.3680 120° Southeast 252 290 9,000  Level FlightAware ADS-B
Fri 06:11:44 AM 51.3643 -0.3634 130° Southeast 253 291 9,000  Level FlightAware ADS-B
Fri 06:11:47 AM 51.3616 -0.3581 129° Southeast 254 292 9,000  Level FlightAware ADS-B
Fri 06:11:53 AM 51.3559 -0.3510 142° Southeast 256 295 9,000  Level FlightAware ADS-B
Fri 06:12:08 AM 51.3404 -0.3355 148° Southeast 259 298 9,000  Level FlightAware ADS-B
Fri 06:12:12 AM 51.3363 -0.3320 152° Southeast 260 299 9,000  Level FlightAware ADS-B
Fri 06:12:15 AM 51.3328 -0.3300 160° South 261 300 9,000  Level FlightAware ADS-B
Fri 06:12:22 AM 51.3250 -0.3275 169° South 263 303 9,000  Level FlightAware ADS-B
Fri 06:12:26 AM 51.3202 -0.3275 180° South 264 304 9,000  Level FlightAware ADS-B
Fri 06:12:29 AM 51.3157 -0.3283 186° South 265 305 9,000  Level FlightAware ADS-B
Fri 06:12:33 AM 51.3116 -0.3302 196° South 266 306 9,000  Level FlightAware ADS-B
Fri 06:12:37 AM 51.3065 -0.3332 200° South 267 307 9,000  Level FlightAware ADS-B
Fri 06:12:42 AM 51.3019 -0.3371 208° Southwest 270 311 9,000  Level FlightAware ADS-B
Fri 06:12:45 AM 51.2980 -0.3419 218° Southwest 271 312 9,000  Level FlightAware ADS-B
Fri 06:12:51 AM 51.2931 -0.3507 228° Southwest 273 314 9,000  Level FlightAware ADS-B
Fri 06:12:55 AM 51.2907 -0.3557 232° Southwest 273 314 9,000  Level FlightAware ADS-B
Fri 06:12:59 AM 51.2878 -0.3646 243° Southwest 273 314 9,000  Level FlightAware ADS-B
Fri 06:13:03 AM 51.2861 -0.3723 251° West 272 313 9,000  Level FlightAware ADS-B
Fri 06:13:08 AM 51.2850 -0.3821 260° West 271 312 9,000  Level FlightAware ADS-B
Fri 06:13:13 AM 51.2849 -0.3922 269° West 269 310 9,000  Level FlightAware ADS-B
Fri 06:13:17 AM 51.2853 -0.3982 276° West 267 307 9,000  Level FlightAware ADS-B
Fri 06:13:24 AM 51.2870 -0.4136 280° West 266 306 9,000  Level FlightAware ADS-B
Fri 06:13:31 AM 51.2892 -0.4250 287° West 264 304 9,000  Level FlightAware ADS-B
Fri 06:13:36 AM 51.2919 -0.4339 296° West 263 303 9,000  Level FlightAware ADS-B
Fri 06:13:48 AM 51.2997 -0.4555 300° West 262 302 9,000  Level FlightAware ADS-B
Fri 06:13:53 AM 51.3023 -0.4624 301° West 262 302 9,000  Level FlightAware ADS-B
Fri 06:13:56 AM 51.3038 -0.4697 288° West 263 303 9,000  Level FlightAware ADS-B
Fri 06:14:04 AM 51.3055 -0.4831 281° West 265 305 9,000 -261 Level FlightAware ADS-B
Fri 06:14:19 AM 51.3078 -0.5143 277° West 269 310 8,900 -692 Descending FlightAware ADS-B
Fri 06:14:30 AM 51.3099 -0.5359 279° West 268 308 8,700 -889 Descending FlightAware ADS-B
Fri 06:14:46 AM 51.3130 -0.5651 280° West 266 306 8,500 -968 Descending FlightAware ADS-B
Fri 06:15:01 AM 51.3162 -0.5959 279° West 263 303 8,200 -1,000 Descending FlightAware ADS-B
Fri 06:15:16 AM 51.3195 -0.6246 280° West 261 300 8,000 -968 Descending FlightAware ADS-B
Fri 06:15:32 AM 51.3229 -0.6531 281° West 260 299 7,700 -1,241 Descending FlightAware ADS-B
Fri 06:15:45 AM 51.3257 -0.6776 280° West 260 299 7,400 -1,286 Descending FlightAware ADS-B
Fri 06:16:00 AM 51.3290 -0.7060 281° West 260 299 7,100 -1,556 Descending FlightAware ADS-B
Fri 06:16:12 AM 51.3315 -0.7287 280° West 260 299 6,700 -2,000 Descending FlightAware ADS-B
Fri 06:16:27 AM 51.3346 -0.7573 280° West 263 303 6,200 -2,000 Descending FlightAware ADS-B
Fri 06:16:33 AM 51.3361 -0.7686 282° West 262 302 6,000 -2,000 Descending FlightAware ADS-B
Fri 06:16:36 AM 51.3375 -0.7761 287° West 261 300 5,900 -1,091 Descending FlightAware ADS-B
Fri 06:16:44 AM 51.3419 -0.7878 301° West 258 297 5,800 -1,043 Descending FlightAware ADS-B
Fri 06:16:59 AM 51.3519 -0.8117 304° West 257 296 5,500 -1,125 Descending FlightAware ADS-B
Fri 06:17:16 AM 51.3630 -0.8390 303° West 259 298 5,200 -857 Descending FlightAware ADS-B
Fri 06:17:20 AM 51.3656 -0.8454 303° West 258 297 5,200 -750 Level FlightAware ADS-B
Fri 06:17:24 AM 51.3685 -0.8514 307° West 257 296 5,100 -1,500 Descending FlightAware ADS-B
Fri 06:17:28 AM 51.3719 -0.8569 315° West 254 292 5,000 -857 Descending FlightAware ADS-B
Fri 06:17:31 AM 51.3755 -0.8614 322° Northwest 250 288 5,000 -667 Level FlightAware ADS-B
Fri 06:17:37 AM 51.3807 -0.8656 333° Northwest 244 281 4,900 -667 Descending FlightAware ADS-B
Fri 06:17:40 AM 51.3844 -0.8679 339° North 239 275 4,900  Level FlightAware ADS-B
Fri 06:17:44 AM 51.3881 -0.8692 348° North 234 269 4,900  Level FlightAware ADS-B
Fri 06:17:48 AM 51.3928 -0.8707 349° North 230 265 4,900 -316 Level FlightAware ADS-B
Fri 06:18:03 AM 51.4087 -0.8741 352° North 219 252 4,800 -545 Descending FlightAware ADS-B
Fri 06:18:21 AM 51.4253 -0.8784 351° North 209 241 4,600 -889 Descending FlightAware ADS-B
Fri 06:18:30 AM 51.4340 -0.8810 350° North 205 236 4,400 -1,000 Descending FlightAware ADS-B
Fri 06:18:33 AM 51.4368 -0.8813 356° North 203 234 4,400 -750 Level FlightAware ADS-B
Fri 06:18:38 AM 51.4411 -0.8812 North 198 228 4,300 -750 Descending FlightAware ADS-B
Fri 06:18:41 AM 51.4438 -0.8804 10° North 193 222 4,300 -857 Level FlightAware ADS-B
Fri 06:18:45 AM 51.4471 -0.8784 21° North 186 214 4,200 -667 Descending FlightAware ADS-B
Fri 06:18:50 AM 51.4511 -0.8739 35° Northeast 179 206 4,200 -667 Level FlightAware ADS-B
Fri 06:18:54 AM 51.4529 -0.8711 44° Northeast 178 205 4,100 -600 Descending FlightAware ADS-B
Fri 06:19:10 AM 51.4610 -0.8546 52° Northeast 175 201 4,000 -387 Descending FlightAware ADS-B
Fri 06:19:25 AM 51.4687 -0.8383 53° Northeast 175 201 3,900 -300 Descending FlightAware ADS-B
Fri 06:19:30 AM 51.4710 -0.8342 48° Northeast 175 201 3,900 -600 Level FlightAware ADS-B
Fri 06:19:35 AM 51.4732 -0.8289 57° Northeast 172 198 3,800 -750 Descending FlightAware ADS-B
Fri 06:19:38 AM 51.4741 -0.8254 67° East 171 197 3,800  Level FlightAware ADS-B
Fri 06:19:41 AM 51.4747 -0.8205 79° East 169 194 3,800  Level FlightAware ADS-B
Fri 06:19:44 AM 51.4752 -0.8168 78° East 169 194 3,800 -600 Level FlightAware ADS-B
Fri 06:19:51 AM 51.4759 -0.8094 81° East 170 196 3,700 -800 Descending FlightAware ADS-B
Fri 06:19:59 AM 51.4764 -0.7980 86° East 170 196 3,600 -900 Descending FlightAware ADS-B
Fri 06:20:11 AM 51.4768 -0.7828 88° East 172 198 3,400 -750 Descending FlightAware ADS-B
Fri 06:20:15 AM 51.4768 -0.7777 90° East 172 198 3,400 -900 Level FlightAware ADS-B
Fri 06:20:31 AM 51.4765 -0.7584 91° East 173 199 3,100 -1,071 Descending FlightAware ADS-B
Fri 06:20:43 AM 51.4763 -0.7430 91° East 174 200 2,900 -889 Descending FlightAware ADS-B
Fri 06:20:58 AM 51.4764 -0.7223 90° East 175 201 2,700 -828 Descending FlightAware ADS-B
Fri 06:21:12 AM 51.4766 -0.7043 89° East 170 196 2,500 -1,043 Descending FlightAware ADS-B
Fri 06:21:21 AM 51.4766 -0.6932 90° East 167 192 2,300 -1,200 Descending FlightAware ADS-B
Fri 06:21:32 AM 51.4766 -0.6798 90° East 161 185 2,100 -889 Descending FlightAware ADS-B
Fri 06:21:48 AM 51.4768 -0.6621 89° East 156 180 1,900 -750 Descending FlightAware ADS-B
Fri 06:22:04 AM 51.4769 -0.6440 89° East 154 177 1,700 -774 Descending FlightAware ADS-B
Fri 06:22:19 AM 51.4769 -0.6256 90° East 153 176 1,500 -727 Descending FlightAware ADS-B
Fri 06:22:37 AM 51.4771 -0.6056 89° East 147 169 1,300 -769 Descending FlightAware ADS-B
Fri 06:22:58 AM 51.4771 -0.5842 90° East 131 151 1,000 -536 Descending FlightAware ADS-B
Fri 06:23:33 AM 51.4770 -0.5660 90° East 133 153 800 -608 Descending FlightAware ADS-B
Fri 06:24:17 AM 51.4770 -0.5230 90° East 129 148 200 -818 Descending FlightAware ADS-B
Fri 06:24:58 AM 51.4780 -0.4840 88° East 133 153 -293 Descending FlightAware ADS-B
Fri 06:26:03 AM 51.4900 -0.4460 63° Northeast 131 151  Level FlightAware ADS-B
Fri 06:28:00 AM 51.4775 -0.4614 90° East  Level Estimated

Login

Don't have an account? Register now (free) for customized features, flight alerts, and more!